sensor_id;sensor_type;location;lat;lon;timestamp;P1;durP1;ratioP1;P2;durP2;ratioP2
10497;SDS011;5296;51.060;13.750;2022-12-24T00:00:45;1.95;;;1.20;;
10497;SDS011;5296;51.060;13.750;2022-12-24T00:05:47;1.70;;;1.20;;
10497;SDS011;5296;51.060;13.750;2022-12-24T00:10:49;1.80;;;1.20;;
10497;SDS011;5296;51.060;13.750;2022-12-24T00:15:52;2.60;;;1.20;;
10497;SDS011;5296;51.060;13.750;2022-12-24T00:20:54;1.80;;;1.30;;
10497;SDS011;5296;51.060;13.750;2022-12-24T00:25:55;1.77;;;1.13;;
10497;SDS011;5296;51.060;13.750;2022-12-24T00:30:58;4.43;;;1.20;;
10497;SDS011;5296;51.060;13.750;2022-12-24T00:36:00;2.35;;;1.17;;
10497;SDS011;5296;51.060;13.750;2022-12-24T00:41:02;1.77;;;1.20;;
10497;SDS011;5296;51.060;13.750;2022-12-24T00:46:05;1.90;;;1.20;;
10497;SDS011;5296;51.060;13.750;2022-12-24T00:51:07;2.50;;;1.30;;
10497;SDS011;5296;51.060;13.750;2022-12-24T00:56:09;1.70;;;1.27;;
10497;SDS011;5296;51.060;13.750;2022-12-24T01:01:10;2.30;;;1.38;;
10497;SDS011;5296;51.060;13.750;2022-12-24T01:06:14;2.08;;;1.15;;
10497;SDS011;5296;51.060;13.750;2022-12-24T01:11:18;2.05;;;1.48;;
10497;SDS011;5296;51.060;13.750;2022-12-24T01:16:20;4.60;;;1.50;;
10497;SDS011;5296;51.060;13.750;2022-12-24T01:21:22;3.80;;;1.67;;
10497;SDS011;5296;51.060;13.750;2022-12-24T01:26:23;5.25;;;2.17;;
10497;SDS011;5296;51.060;13.750;2022-12-24T01:31:25;3.55;;;1.40;;
10497;SDS011;5296;51.060;13.750;2022-12-24T01:36:27;3.63;;;1.65;;
10497;SDS011;5296;51.060;13.750;2022-12-24T01:41:29;6.63;;;2.08;;
10497;SDS011;5296;51.060;13.750;2022-12-24T01:46:51;5.65;;;1.70;;
10497;SDS011;5296;51.060;13.750;2022-12-24T01:52:06;4.93;;;1.67;;
10497;SDS011;5296;51.060;13.750;2022-12-24T01:57:12;6.28;;;2.00;;
10497;SDS011;5296;51.060;13.750;2022-12-24T02:02:18;3.78;;;2.03;;
10497;SDS011;5296;51.060;13.750;2022-12-24T02:07:20;5.68;;;1.73;;
10497;SDS011;5296;51.060;13.750;2022-12-24T02:12:24;2.80;;;1.70;;
10497;SDS011;5296;51.060;13.750;2022-12-24T02:27:55;4.53;;;1.80;;
10497;SDS011;5296;51.060;13.750;2022-12-24T02:38:05;4.82;;;1.77;;
10497;SDS011;5296;51.060;13.750;2022-12-24T02:43:16;4.25;;;1.75;;
10497;SDS011;5296;51.060;13.750;2022-12-24T02:48:20;6.65;;;1.70;;
10497;SDS011;5296;51.060;13.750;2022-12-24T02:53:23;4.15;;;1.58;;
10497;SDS011;5296;51.060;13.750;2022-12-24T03:13:55;3.00;;;1.52;;
10497;SDS011;5296;51.060;13.750;2022-12-24T03:18:59;7.78;;;1.67;;
10497;SDS011;5296;51.060;13.750;2022-12-24T03:24:01;3.13;;;1.45;;
10497;SDS011;5296;51.060;13.750;2022-12-24T03:29:04;3.20;;;1.27;;
10497;SDS011;5296;51.060;13.750;2022-12-24T03:34:09;2.67;;;1.30;;
10497;SDS011;5296;51.060;13.750;2022-12-24T03:39:12;3.38;;;1.52;;
10497;SDS011;5296;51.060;13.750;2022-12-24T03:44:13;3.67;;;1.20;;
10497;SDS011;5296;51.060;13.750;2022-12-24T03:49:15;2.95;;;1.40;;
10497;SDS011;5296;51.060;13.750;2022-12-24T03:54:17;2.60;;;1.20;;
10497;SDS011;5296;51.060;13.750;2022-12-24T03:59:18;2.78;;;1.45;;
10497;SDS011;5296;51.060;13.750;2022-12-24T04:04:20;3.08;;;1.40;;
10497;SDS011;5296;51.060;13.750;2022-12-24T04:09:22;2.63;;;1.33;;
10497;SDS011;5296;51.060;13.750;2022-12-24T04:14:23;5.80;;;1.40;;
10497;SDS011;5296;51.060;13.750;2022-12-24T04:19:25;4.32;;;1.40;;
10497;SDS011;5296;51.060;13.750;2022-12-24T04:24:27;3.25;;;1.33;;
10497;SDS011;5296;51.060;13.750;2022-12-24T04:29:28;3.25;;;1.50;;
10497;SDS011;5296;51.060;13.750;2022-12-24T04:34:30;3.70;;;1.20;;
10497;SDS011;5296;51.060;13.750;2022-12-24T04:39:32;2.33;;;1.27;;
10497;SDS011;5296;51.060;13.750;2022-12-24T04:44:33;2.75;;;1.52;;
10497;SDS011;5296;51.060;13.750;2022-12-24T04:49:35;4.88;;;1.35;;
10497;SDS011;5296;51.060;13.750;2022-12-24T04:54:37;3.20;;;1.42;;
10497;SDS011;5296;51.060;13.750;2022-12-24T04:59:38;2.95;;;1.50;;
10497;SDS011;5296;51.060;13.750;2022-12-24T05:04:40;4.55;;;1.55;;
10497;SDS011;5296;51.060;13.750;2022-12-24T05:09:42;4.32;;;1.60;;
10497;SDS011;5296;51.060;13.750;2022-12-24T05:14:43;5.50;;;1.60;;
10497;SDS011;5296;51.060;13.750;2022-12-24T05:19:45;3.88;;;1.52;;
10497;SDS011;5296;51.060;13.750;2022-12-24T05:24:46;4.18;;;1.60;;
10497;SDS011;5296;51.060;13.750;2022-12-24T05:30:07;3.35;;;1.50;;
10497;SDS011;5296;51.060;13.750;2022-12-24T05:35:09;7.97;;;2.08;;
10497;SDS011;5296;51.060;13.750;2022-12-24T05:40:10;2.40;;;1.23;;
10497;SDS011;5296;51.060;13.750;2022-12-24T05:45:12;4.28;;;1.85;;
10497;SDS011;5296;51.060;13.750;2022-12-24T05:50:14;6.30;;;1.83;;
10497;SDS011;5296;51.060;13.750;2022-12-24T05:55:15;3.90;;;1.52;;
10497;SDS011;5296;51.060;13.750;2022-12-24T06:00:17;4.85;;;1.67;;
10497;SDS011;5296;51.060;13.750;2022-12-24T06:05:19;5.78;;;1.52;;
10497;SDS011;5296;51.060;13.750;2022-12-24T06:10:21;6.80;;;2.00;;
10497;SDS011;5296;51.060;13.750;2022-12-24T06:15:23;3.13;;;1.60;;
10497;SDS011;5296;51.060;13.750;2022-12-24T06:20:25;5.40;;;1.98;;
10497;SDS011;5296;51.060;13.750;2022-12-24T06:25:26;3.92;;;1.83;;
10497;SDS011;5296;51.060;13.750;2022-12-24T06:30:28;5.40;;;1.77;;
10497;SDS011;5296;51.060;13.750;2022-12-24T06:35:30;3.20;;;1.40;;
10497;SDS011;5296;51.060;13.750;2022-12-24T06:40:32;5.38;;;2.00;;
10497;SDS011;5296;51.060;13.750;2022-12-24T06:45:34;3.35;;;1.48;;
10497;SDS011;5296;51.060;13.750;2022-12-24T06:50:35;5.03;;;1.70;;
10497;SDS011;5296;51.060;13.750;2022-12-24T06:55:38;4.13;;;1.45;;
10497;SDS011;5296;51.060;13.750;2022-12-24T07:00:40;2.95;;;1.70;;
10497;SDS011;5296;51.060;13.750;2022-12-24T07:05:41;3.95;;;1.88;;
10497;SDS011;5296;51.060;13.750;2022-12-24T07:10:43;5.30;;;1.92;;
10497;SDS011;5296;51.060;13.750;2022-12-24T07:16:00;5.18;;;1.73;;
10497;SDS011;5296;51.060;13.750;2022-12-24T07:21:03;5.00;;;2.22;;
10497;SDS011;5296;51.060;13.750;2022-12-24T07:26:06;7.30;;;1.98;;
10497;SDS011;5296;51.060;13.750;2022-12-24T07:31:07;4.47;;;1.60;;
10497;SDS011;5296;51.060;13.750;2022-12-24T07:36:10;4.97;;;1.80;;
10497;SDS011;5296;51.060;13.750;2022-12-24T07:41:16;9.25;;;1.95;;
10497;SDS011;5296;51.060;13.750;2022-12-24T07:46:17;7.22;;;2.45;;
10497;SDS011;5296;51.060;13.750;2022-12-24T07:51:19;5.95;;;2.13;;
10497;SDS011;5296;51.060;13.750;2022-12-24T07:56:21;4.82;;;1.73;;
10497;SDS011;5296;51.060;13.750;2022-12-24T08:01:23;3.60;;;1.92;;
10497;SDS011;5296;51.060;13.750;2022-12-24T08:06:24;3.78;;;1.80;;
10497;SDS011;5296;51.060;13.750;2022-12-24T08:11:26;5.30;;;1.88;;
10497;SDS011;5296;51.060;13.750;2022-12-24T08:16:28;5.70;;;1.85;;
10497;SDS011;5296;51.060;13.750;2022-12-24T08:21:29;3.15;;;1.50;;
10497;SDS011;5296;51.060;13.750;2022-12-24T08:26:31;3.88;;;1.55;;
10497;SDS011;5296;51.060;13.750;2022-12-24T08:31:33;4.10;;;1.75;;
10497;SDS011;5296;51.060;13.750;2022-12-24T08:36:37;4.72;;;1.90;;
10497;SDS011;5296;51.060;13.750;2022-12-24T08:41:39;6.90;;;1.90;;
10497;SDS011;5296;51.060;13.750;2022-12-24T08:46:41;6.03;;;1.65;;
10497;SDS011;5296;51.060;13.750;2022-12-24T08:51:42;5.82;;;1.88;;
10497;SDS011;5296;51.060;13.750;2022-12-24T08:56:44;8.07;;;2.33;;
10497;SDS011;5296;51.060;13.750;2022-12-24T09:01:46;8.00;;;2.42;;
10497;SDS011;5296;51.060;13.750;2022-12-24T09:06:48;7.57;;;2.17;;
10497;SDS011;5296;51.060;13.750;2022-12-24T09:11:49;5.68;;;1.90;;
10497;SDS011;5296;51.060;13.750;2022-12-24T09:16:51;7.93;;;2.33;;
10497;SDS011;5296;51.060;13.750;2022-12-24T09:21:53;6.68;;;2.30;;
10497;SDS011;5296;51.060;13.750;2022-12-24T09:26:55;6.00;;;2.30;;
10497;SDS011;5296;51.060;13.750;2022-12-24T09:31:58;3.28;;;1.80;;
10497;SDS011;5296;51.060;13.750;2022-12-24T09:37:00;7.30;;;2.05;;
10497;SDS011;5296;51.060;13.750;2022-12-24T09:42:10;6.10;;;2.17;;
10497;SDS011;5296;51.060;13.750;2022-12-24T09:52:40;6.18;;;2.15;;
10497;SDS011;5296;51.060;13.750;2022-12-24T09:57:44;7.00;;;2.05;;
10497;SDS011;5296;51.060;13.750;2022-12-24T10:02:48;6.75;;;2.22;;
10497;SDS011;5296;51.060;13.750;2022-12-24T10:07:59;7.97;;;2.40;;
10497;SDS011;5296;51.060;13.750;2022-12-24T10:18:24;6.22;;;2.38;;
10497;SDS011;5296;51.060;13.750;2022-12-24T10:34:01;7.70;;;2.40;;
10497;SDS011;5296;51.060;13.750;2022-12-24T10:39:03;10.88;;;2.25;;
10497;SDS011;5296;51.060;13.750;2022-12-24T10:44:07;7.65;;;2.42;;
10497;SDS011;5296;51.060;13.750;2022-12-24T10:49:16;6.88;;;2.03;;
10497;SDS011;5296;51.060;13.750;2022-12-24T10:54:21;6.90;;;3.00;;
10497;SDS011;5296;51.060;13.750;2022-12-24T11:04:31;6.60;;;2.10;;
10497;SDS011;5296;51.060;13.750;2022-12-24T11:09:34;6.72;;;2.05;;
10497;SDS011;5296;51.060;13.750;2022-12-24T11:14:38;8.55;;;2.95;;
10497;SDS011;5296;51.060;13.750;2022-12-24T11:19:40;5.40;;;2.00;;
10497;SDS011;5296;51.060;13.750;2022-12-24T11:24:58;5.72;;;2.08;;
10497;SDS011;5296;51.060;13.750;2022-12-24T11:30:29;8.50;;;2.78;;
10497;SDS011;5296;51.060;13.750;2022-12-24T11:35:32;4.80;;;2.17;;
10497;SDS011;5296;51.060;13.750;2022-12-24T11:40:39;5.55;;;2.00;;
10497;SDS011;5296;51.060;13.750;2022-12-24T11:45:49;4.93;;;1.63;;
10497;SDS011;5296;51.060;13.750;2022-12-24T11:56:02;5.65;;;1.98;;
10497;SDS011;5296;51.060;13.750;2022-12-24T12:06:34;3.90;;;1.55;;
10497;SDS011;5296;51.060;13.750;2022-12-24T12:11:49;3.30;;;1.55;;
10497;SDS011;5296;51.060;13.750;2022-12-24T12:28:05;2.88;;;1.50;;
10497;SDS011;5296;51.060;13.750;2022-12-24T12:33:24;3.90;;;1.63;;
10497;SDS011;5296;51.060;13.750;2022-12-24T12:38:31;3.40;;;1.77;;
10497;SDS011;5296;51.060;13.750;2022-12-24T12:49:11;4.65;;;1.70;;
10497;SDS011;5296;51.060;13.750;2022-12-24T12:54:38;4.85;;;1.83;;
10497;SDS011;5296;51.060;13.750;2022-12-24T12:59:58;6.97;;;2.80;;
10497;SDS011;5296;51.060;13.750;2022-12-24T13:21:16;5.35;;;1.67;;
10497;SDS011;5296;51.060;13.750;2022-12-24T13:26:19;3.67;;;1.83;;
10497;SDS011;5296;51.060;13.750;2022-12-24T13:31:22;4.05;;;1.80;;
10497;SDS011;5296;51.060;13.750;2022-12-24T13:36:25;3.28;;;1.50;;
10497;SDS011;5296;51.060;13.750;2022-12-24T13:42:05;3.58;;;1.50;;
10497;SDS011;5296;51.060;13.750;2022-12-24T13:52:16;3.50;;;1.85;;
10497;SDS011;5296;51.060;13.750;2022-12-24T14:02:51;4.20;;;1.67;;
10497;SDS011;5296;51.060;13.750;2022-12-24T14:07:56;6.35;;;2.15;;
10497;SDS011;5296;51.060;13.750;2022-12-24T14:12:59;6.07;;;2.10;;
10497;SDS011;5296;51.060;13.750;2022-12-24T14:18:00;3.00;;;1.70;;
10497;SDS011;5296;51.060;13.750;2022-12-24T14:23:03;3.40;;;1.80;;
10497;SDS011;5296;51.060;13.750;2022-12-24T14:28:10;3.65;;;1.55;;
10497;SDS011;5296;51.060;13.750;2022-12-24T14:33:27;6.13;;;1.60;;
10497;SDS011;5296;51.060;13.750;2022-12-24T14:38:30;3.88;;;1.85;;
10497;SDS011;5296;51.060;13.750;2022-12-24T14:43:41;4.53;;;1.85;;
10497;SDS011;5296;51.060;13.750;2022-12-24T14:49:26;4.05;;;1.80;;
10497;SDS011;5296;51.060;13.750;2022-12-24T14:54:42;2.53;;;1.88;;
10497;SDS011;5296;51.060;13.750;2022-12-24T14:59:46;2.70;;;1.60;;
10497;SDS011;5296;51.060;13.750;2022-12-24T15:05:07;2.55;;;1.50;;
10497;SDS011;5296;51.060;13.750;2022-12-24T15:15:31;4.95;;;1.77;;
10497;SDS011;5296;51.060;13.750;2022-12-24T15:20:34;4.78;;;1.58;;
10497;SDS011;5296;51.060;13.750;2022-12-24T15:25:36;3.20;;;1.60;;
10497;SDS011;5296;51.060;13.750;2022-12-24T15:30:38;3.78;;;1.65;;
10497;SDS011;5296;51.060;13.750;2022-12-24T15:35:53;5.30;;;2.08;;
10497;SDS011;5296;51.060;13.750;2022-12-24T15:40:56;3.15;;;1.70;;
10497;SDS011;5296;51.060;13.750;2022-12-24T15:45:58;3.92;;;2.28;;
10497;SDS011;5296;51.060;13.750;2022-12-24T15:51:01;4.97;;;2.15;;
10497;SDS011;5296;51.060;13.750;2022-12-24T16:06:14;5.80;;;2.15;;
10497;SDS011;5296;51.060;13.750;2022-12-24T16:11:17;4.45;;;2.60;;
10497;SDS011;5296;51.060;13.750;2022-12-24T16:16:29;3.97;;;1.70;;
10497;SDS011;5296;51.060;13.750;2022-12-24T16:21:39;2.90;;;1.80;;
10497;SDS011;5296;51.060;13.750;2022-12-24T16:26:41;2.53;;;1.88;;
10497;SDS011;5296;51.060;13.750;2022-12-24T16:31:50;3.95;;;2.45;;
10497;SDS011;5296;51.060;13.750;2022-12-24T16:36:53;4.85;;;3.50;;
10497;SDS011;5296;51.060;13.750;2022-12-24T16:41:56;5.22;;;3.42;;
10497;SDS011;5296;51.060;13.750;2022-12-24T16:47:20;3.58;;;2.95;;
10497;SDS011;5296;51.060;13.750;2022-12-24T16:52:24;3.40;;;3.10;;
10497;SDS011;5296;51.060;13.750;2022-12-24T16:57:28;2.90;;;1.90;;
10497;SDS011;5296;51.060;13.750;2022-12-24T17:02:34;3.55;;;1.75;;
10497;SDS011;5296;51.060;13.750;2022-12-24T17:07:36;3.33;;;1.88;;
10497;SDS011;5296;51.060;13.750;2022-12-24T17:12:44;7.32;;;5.35;;
10497;SDS011;5296;51.060;13.750;2022-12-24T17:17:45;4.50;;;3.60;;
10497;SDS011;5296;51.060;13.750;2022-12-24T17:22:47;4.32;;;3.40;;
10497;SDS011;5296;51.060;13.750;2022-12-24T17:27:49;4.25;;;2.65;;
10497;SDS011;5296;51.060;13.750;2022-12-24T17:32:51;5.05;;;2.85;;
10497;SDS011;5296;51.060;13.750;2022-12-24T17:37:52;4.03;;;2.78;;
10497;SDS011;5296;51.060;13.750;2022-12-24T17:42:54;3.95;;;3.20;;
10497;SDS011;5296;51.060;13.750;2022-12-24T17:47:56;3.80;;;2.65;;
10497;SDS011;5296;51.060;13.750;2022-12-24T17:52:58;5.60;;;3.38;;
10497;SDS011;5296;51.060;13.750;2022-12-24T17:57:59;5.25;;;3.85;;
10497;SDS011;5296;51.060;13.750;2022-12-24T18:03:01;5.50;;;4.05;;
10497;SDS011;5296;51.060;13.750;2022-12-24T18:08:03;6.57;;;3.45;;
10497;SDS011;5296;51.060;13.750;2022-12-24T18:13:05;5.78;;;3.17;;
10497;SDS011;5296;51.060;13.750;2022-12-24T18:18:08;3.15;;;2.83;;
10497;SDS011;5296;51.060;13.750;2022-12-24T18:23:10;4.25;;;3.10;;
10497;SDS011;5296;51.060;13.750;2022-12-24T18:28:12;5.10;;;3.10;;
10497;SDS011;5296;51.060;13.750;2022-12-24T18:33:14;4.95;;;3.22;;
10497;SDS011;5296;51.060;13.750;2022-12-24T18:38:15;6.10;;;2.90;;
10497;SDS011;5296;51.060;13.750;2022-12-24T18:43:17;3.25;;;2.50;;
10497;SDS011;5296;51.060;13.750;2022-12-24T18:48:19;4.53;;;3.17;;
10497;SDS011;5296;51.060;13.750;2022-12-24T18:53:21;6.10;;;5.28;;
10497;SDS011;5296;51.060;13.750;2022-12-24T18:58:23;6.43;;;4.68;;
10497;SDS011;5296;51.060;13.750;2022-12-24T19:03:24;3.08;;;2.75;;
10497;SDS011;5296;51.060;13.750;2022-12-24T19:08:26;5.55;;;3.10;;
10497;SDS011;5296;51.060;13.750;2022-12-24T19:13:48;3.85;;;3.03;;
10497;SDS011;5296;51.060;13.750;2022-12-24T19:18:50;3.17;;;2.47;;
10497;SDS011;5296;51.060;13.750;2022-12-24T19:23:51;4.35;;;2.65;;
10497;SDS011;5296;51.060;13.750;2022-12-24T19:28:53;6.15;;;2.95;;
10497;SDS011;5296;51.060;13.750;2022-12-24T19:33:55;4.88;;;2.70;;
10497;SDS011;5296;51.060;13.750;2022-12-24T19:38:57;6.05;;;2.65;;
10497;SDS011;5296;51.060;13.750;2022-12-24T19:43:59;4.20;;;2.80;;
10497;SDS011;5296;51.060;13.750;2022-12-24T19:49:02;6.05;;;2.75;;
10497;SDS011;5296;51.060;13.750;2022-12-24T19:54:06;6.47;;;2.90;;
10497;SDS011;5296;51.060;13.750;2022-12-24T19:59:18;4.22;;;2.72;;
10497;SDS011;5296;51.060;13.750;2022-12-24T20:04:20;5.30;;;2.78;;
10497;SDS011;5296;51.060;13.750;2022-12-24T20:09:22;3.70;;;2.30;;
10497;SDS011;5296;51.060;13.750;2022-12-24T20:14:24;5.50;;;2.28;;
10497;SDS011;5296;51.060;13.750;2022-12-24T20:19:25;5.03;;;2.50;;
10497;SDS011;5296;51.060;13.750;2022-12-24T20:24:27;5.38;;;2.05;;
10497;SDS011;5296;51.060;13.750;2022-12-24T20:29:28;5.30;;;2.63;;
10497;SDS011;5296;51.060;13.750;2022-12-24T20:34:30;4.63;;;2.50;;
10497;SDS011;5296;51.060;13.750;2022-12-24T20:39:32;3.53;;;2.20;;
10497;SDS011;5296;51.060;13.750;2022-12-24T20:44:33;5.15;;;2.70;;
10497;SDS011;5296;51.060;13.750;2022-12-24T20:49:35;5.25;;;2.33;;
10497;SDS011;5296;51.060;13.750;2022-12-24T20:54:37;6.53;;;2.72;;
10497;SDS011;5296;51.060;13.750;2022-12-24T20:59:40;5.45;;;2.30;;
10497;SDS011;5296;51.060;13.750;2022-12-24T21:04:43;5.13;;;2.58;;
10497;SDS011;5296;51.060;13.750;2022-12-24T21:09:45;4.40;;;2.30;;
10497;SDS011;5296;51.060;13.750;2022-12-24T21:14:47;4.72;;;2.53;;
10497;SDS011;5296;51.060;13.750;2022-12-24T21:19:48;6.25;;;2.65;;
10497;SDS011;5296;51.060;13.750;2022-12-24T21:24:52;6.10;;;2.53;;
10497;SDS011;5296;51.060;13.750;2022-12-24T21:29:54;4.55;;;2.38;;
10497;SDS011;5296;51.060;13.750;2022-12-24T21:34:56;8.02;;;2.90;;
10497;SDS011;5296;51.060;13.750;2022-12-24T21:39:57;5.20;;;2.53;;
10497;SDS011;5296;51.060;13.750;2022-12-24T21:45:00;4.38;;;2.25;;
10497;SDS011;5296;51.060;13.750;2022-12-24T21:50:02;5.82;;;3.05;;
10497;SDS011;5296;51.060;13.750;2022-12-24T21:55:31;5.47;;;2.90;;
10497;SDS011;5296;51.060;13.750;2022-12-24T22:00:33;5.10;;;2.88;;
10497;SDS011;5296;51.060;13.750;2022-12-24T22:05:35;9.60;;;2.88;;
10497;SDS011;5296;51.060;13.750;2022-12-24T22:10:37;6.63;;;2.97;;
10497;SDS011;5296;51.060;13.750;2022-12-24T22:15:57;5.32;;;2.83;;
10497;SDS011;5296;51.060;13.750;2022-12-24T22:21:00;7.07;;;3.22;;
10497;SDS011;5296;51.060;13.750;2022-12-24T22:26:12;7.65;;;3.38;;
10497;SDS011;5296;51.060;13.750;2022-12-24T22:31:18;5.70;;;3.45;;
10497;SDS011;5296;51.060;13.750;2022-12-24T22:36:21;9.73;;;3.88;;
10497;SDS011;5296;51.060;13.750;2022-12-24T22:41:23;7.57;;;3.97;;
10497;SDS011;5296;51.060;13.750;2022-12-24T22:46:25;7.15;;;4.05;;
10497;SDS011;5296;51.060;13.750;2022-12-24T22:51:27;9.05;;;3.83;;
10497;SDS011;5296;51.060;13.750;2022-12-24T22:56:28;8.55;;;3.17;;
10497;SDS011;5296;51.060;13.750;2022-12-24T23:01:36;7.35;;;3.47;;
10497;SDS011;5296;51.060;13.750;2022-12-24T23:06:39;6.65;;;3.10;;
10497;SDS011;5296;51.060;13.750;2022-12-24T23:11:42;7.20;;;3.72;;
10497;SDS011;5296;51.060;13.750;2022-12-24T23:16:44;5.88;;;3.50;;
10497;SDS011;5296;51.060;13.750;2022-12-24T23:21:46;7.47;;;3.20;;
10497;SDS011;5296;51.060;13.750;2022-12-24T23:26:48;5.63;;;3.00;;
10497;SDS011;5296;51.060;13.750;2022-12-24T23:31:50;6.10;;;3.40;;
10497;SDS011;5296;51.060;13.750;2022-12-24T23:36:52;6.72;;;3.33;;
10497;SDS011;5296;51.060;13.750;2022-12-24T23:41:53;9.18;;;3.83;;
10497;SDS011;5296;51.060;13.750;2022-12-24T23:46:55;7.78;;;3.58;;
10497;SDS011;5296;51.060;13.750;2022-12-24T23:51:57;7.57;;;4.13;;
10497;SDS011;5296;51.060;13.750;2022-12-24T23:56:58;7.35;;;3.80;;
